createdAt,value
2022-09-28T00:00:36.843Z,44.20
2022-09-28T00:03:03.249Z,44.23
2022-09-28T00:05:29.526Z,44.21
2022-09-28T00:07:55.891Z,44.21
2022-09-28T00:10:22.228Z,44.17
2022-09-28T00:12:48.577Z,44.11
2022-09-28T00:15:14.913Z,44.14
2022-09-28T00:17:41.257Z,44.14
2022-09-28T00:20:07.626Z,44.11
2022-09-28T00:22:33.976Z,44.13
2022-09-28T00:25:00.314Z,44.09
2022-09-28T00:27:26.678Z,44.05
2022-09-28T00:29:53.011Z,44.09
2022-09-28T00:32:19.426Z,44.07
2022-09-28T00:34:45.773Z,44.01
2022-09-28T00:37:12.104Z,44.06
2022-09-28T00:39:38.474Z,43.97
2022-09-28T00:42:04.820Z,43.98
2022-09-28T00:44:31.164Z,44.05
2022-09-28T00:46:57.544Z,44.01
2022-09-28T00:49:23.887Z,43.99
2022-09-28T00:51:50.227Z,43.99
2022-09-28T00:54:16.590Z,44.00
2022-09-28T00:56:42.929Z,43.97
2022-09-28T00:59:09.358Z,43.94
2022-09-28T01:01:35.654Z,43.94
2022-09-28T01:04:01.992Z,43.95
2022-09-28T01:06:28.344Z,43.91
2022-09-28T01:08:54.692Z,43.96
2022-09-28T01:11:21.037Z,43.95
2022-09-28T01:13:47.437Z,43.95
2022-09-28T01:16:13.859Z,43.88
2022-09-28T01:18:40.123Z,43.84
2022-09-28T01:21:06.471Z,43.86
2022-09-28T01:23:32.803Z,43.92
2022-09-28T01:25:59.140Z,43.89
2022-09-28T01:28:25.492Z,43.86
2022-09-28T01:30:51.843Z,43.80
2022-09-28T01:33:18.184Z,43.81
2022-09-28T01:35:44.557Z,43.72
2022-09-28T01:38:10.926Z,43.69
2022-09-28T01:40:37.326Z,43.74
2022-09-28T01:43:03.600Z,43.69
2022-09-28T01:45:29.950Z,43.69
2022-09-28T01:47:56.282Z,43.68
2022-09-28T01:50:22.635Z,43.70
2022-09-28T01:52:48.970Z,43.70
2022-09-28T01:55:15.308Z,43.63
2022-09-28T01:57:41.646Z,43.64
2022-09-28T02:00:07.990Z,43.55
2022-09-28T02:02:34.407Z,43.57
2022-09-28T02:05:02.688Z,43.40
2022-09-28T02:07:27.025Z,42.93
2022-09-28T02:09:53.366Z,42.73
2022-09-28T02:12:19.731Z,42.34
2022-09-28T02:14:46.075Z,42.38
2022-09-28T02:17:12.422Z,42.29
2022-09-28T02:19:38.760Z,42.21
2022-09-28T02:22:05.101Z,42.17
2022-09-28T02:24:31.488Z,42.23
2022-09-28T02:26:57.822Z,42.07
2022-09-28T02:29:24.162Z,41.99
2022-09-28T02:31:50.541Z,41.92
2022-09-28T02:34:19.255Z,41.86
2022-09-28T02:36:45.593Z,41.86
2022-09-28T02:39:11.926Z,41.71
2022-09-28T02:41:38.275Z,41.69
2022-09-28T02:44:04.615Z,41.63
2022-09-28T02:49:21.341Z,41.57
2022-09-28T02:51:36.197Z,41.46
2022-09-28T02:54:02.527Z,41.41
2022-09-28T02:56:28.879Z,41.42
2022-09-28T02:58:55.219Z,41.34
2022-09-28T03:01:21.598Z,41.29
2022-09-28T03:03:47.897Z,41.25
2022-09-28T03:06:14.243Z,41.20
2022-09-28T03:08:40.611Z,41.11
2022-09-28T03:11:06.952Z,41.10
2022-09-28T03:13:33.296Z,41.05
2022-09-28T03:15:59.689Z,41.01
2022-09-28T03:18:25.978Z,40.99
2022-09-28T03:20:52.328Z,41.00
2022-09-28T03:23:25.845Z,40.99
2022-09-28T03:25:45.048Z,40.89
2022-09-28T03:28:11.344Z,40.78
2022-09-28T03:30:37.696Z,40.78
2022-09-28T03:33:04.039Z,40.69
2022-09-28T03:35:30.392Z,40.65
2022-09-28T03:37:56.817Z,40.59
2022-09-28T03:40:23.155Z,40.62
2022-09-28T03:42:49.416Z,40.48
2022-09-28T03:45:15.760Z,40.48
2022-09-28T03:47:42.093Z,40.46
2022-09-28T03:50:08.433Z,40.38
2022-09-28T03:52:34.773Z,40.36
2022-09-28T03:55:01.108Z,40.25
2022-09-28T03:57:27.450Z,40.31
2022-09-28T03:59:53.799Z,40.20
2022-09-28T04:02:20.170Z,40.23
2022-09-28T04:04:46.470Z,40.19
2022-09-28T04:07:12.809Z,40.12
2022-09-28T04:09:39.146Z,40.04
2022-09-28T04:12:05.493Z,40.50
2022-09-28T04:14:31.834Z,41.20
2022-09-28T04:16:58.173Z,40.46
2022-09-28T04:19:24.517Z,40.37
2022-09-28T04:21:50.859Z,40.25
2022-09-28T04:24:17.202Z,40.26
2022-09-28T04:26:43.541Z,40.28
2022-09-28T04:29:09.891Z,40.15
2022-09-28T04:31:36.274Z,40.10
2022-09-28T04:34:02.572Z,40.06
2022-09-28T04:36:28.917Z,39.98
2022-09-28T04:38:55.262Z,39.98
2022-09-28T04:41:21.597Z,39.90
2022-09-28T04:43:47.947Z,39.91
2022-09-28T04:46:14.311Z,39.93
2022-09-28T04:48:40.622Z,40.02
2022-09-28T04:51:06.953Z,39.97
2022-09-28T04:53:33.296Z,39.70
2022-09-28T04:55:59.628Z,39.64
2022-09-28T04:58:25.982Z,40.64
2022-09-28T05:00:52.357Z,39.80
2022-09-28T05:03:18.663Z,39.56
2022-09-28T05:05:44.996Z,39.50
2022-09-28T05:08:11.336Z,39.62
2022-09-28T05:10:37.795Z,39.58
2022-09-28T05:13:04.146Z,39.63
2022-09-28T05:15:30.472Z,39.55
2022-09-28T05:17:56.842Z,39.57
2022-09-28T05:20:23.187Z,39.48
2022-09-28T05:22:49.535Z,39.34
2022-09-28T05:25:15.872Z,39.17
2022-09-28T05:27:42.217Z,39.24
2022-09-28T05:30:08.545Z,39.26
2022-09-28T05:32:34.920Z,38.90
2022-09-28T05:35:01.264Z,39.20
2022-09-28T05:37:27.629Z,39.30
2022-09-28T05:39:53.983Z,39.22
2022-09-28T05:42:20.353Z,39.11
2022-09-28T05:44:46.696Z,39.31
2022-09-28T05:47:13.032Z,39.25
2022-09-28T05:49:39.364Z,39.12
2022-09-28T05:52:05.697Z,39.12
2022-09-28T05:54:32.048Z,38.99
2022-09-28T05:56:58.371Z,39.09
2022-09-28T05:59:24.712Z,38.98
2022-09-28T06:01:52.000Z,38.99
2022-09-28T06:04:17.670Z,38.93
2022-09-28T06:06:43.839Z,38.96
2022-09-28T06:09:10.177Z,39.77
2022-09-28T06:11:36.528Z,39.06
2022-09-28T06:14:02.877Z,38.67
2022-09-28T06:16:29.262Z,38.94
2022-09-28T06:18:55.547Z,38.78
2022-09-28T06:21:21.879Z,38.57
2022-09-28T06:23:49.418Z,38.95
2022-09-28T06:26:14.619Z,38.93
2022-09-28T06:28:40.985Z,38.71
2022-09-28T06:31:07.404Z,38.68
2022-09-28T06:33:33.650Z,38.76
2022-09-28T06:36:00.006Z,38.87
2022-09-28T06:38:26.411Z,39.12
2022-09-28T06:40:52.788Z,39.48
2022-09-28T06:43:19.097Z,38.94
2022-09-28T06:45:45.466Z,38.50
2022-09-28T06:48:11.798Z,38.54
2022-09-28T06:50:38.132Z,38.61
2022-09-28T06:53:04.543Z,38.93
2022-09-28T06:55:32.077Z,38.74
2022-09-28T06:57:57.258Z,38.48
2022-09-28T07:00:23.591Z,38.48
2022-09-28T07:02:49.980Z,38.59
2022-09-28T07:05:16.316Z,38.44
2022-09-28T07:07:42.667Z,38.55
2022-09-28T07:10:09.014Z,38.50
2022-09-28T07:12:35.363Z,38.62
2022-09-28T07:15:01.717Z,38.80
2022-09-28T07:17:28.129Z,38.80
2022-09-28T07:19:54.431Z,38.84
2022-09-28T07:22:31.775Z,38.87
2022-09-28T07:24:47.151Z,38.96
2022-09-28T07:27:13.505Z,38.96
2022-09-28T07:29:39.851Z,38.98
2022-09-28T07:32:06.194Z,39.25
2022-09-28T07:34:32.529Z,39.31
2022-09-28T07:36:58.926Z,39.41
2022-09-28T07:39:25.270Z,39.40
2022-09-28T07:41:54.390Z,39.44
2022-09-28T07:44:18.022Z,39.49
2022-09-28T07:46:44.316Z,39.59
2022-09-28T07:49:12.440Z,39.54
2022-09-28T07:51:38.269Z,39.55
2022-09-28T07:54:03.399Z,39.73
2022-09-28T07:56:29.753Z,39.46
2022-09-28T07:58:56.092Z,39.43
2022-09-28T08:01:24.462Z,39.73
2022-09-28T08:03:48.796Z,39.28
2022-09-28T08:06:15.140Z,39.68
2022-09-28T08:08:41.513Z,39.52
2022-09-28T08:11:07.869Z,38.67
2022-09-28T08:13:34.213Z,38.90
2022-09-28T08:16:00.556Z,38.66
2022-09-28T08:18:26.893Z,38.95
2022-09-28T08:20:53.250Z,38.32
2022-09-28T08:23:19.579Z,38.81
2022-09-28T08:25:45.919Z,38.38
2022-09-28T08:28:12.266Z,38.61
2022-09-28T08:30:38.712Z,39.12
2022-09-28T08:33:04.982Z,38.80
2022-09-28T08:35:31.326Z,37.22
2022-09-28T08:37:57.671Z,36.49
2022-09-28T08:40:24.071Z,36.39
2022-09-28T08:42:50.393Z,36.14
2022-09-28T08:45:16.741Z,35.74
2022-09-28T08:47:43.071Z,35.69
2022-09-28T08:50:09.515Z,35.77
2022-09-28T08:52:35.790Z,35.78
2022-09-28T08:55:02.150Z,36.00
2022-09-28T08:57:28.482Z,35.79
2022-09-28T08:59:54.826Z,35.83
2022-09-28T09:02:21.249Z,35.84
2022-09-28T09:04:47.507Z,35.76
2022-09-28T09:07:13.842Z,35.84
2022-09-28T09:09:40.193Z,35.72
2022-09-28T09:12:06.530Z,35.74
2022-09-28T09:14:32.882Z,35.81
2022-09-28T09:17:00.549Z,35.84
2022-09-28T09:19:25.611Z,35.48
2022-09-28T09:21:51.958Z,35.41
2022-09-28T09:24:18.361Z,35.38
2022-09-28T09:26:44.661Z,35.26
2022-09-28T09:29:11.043Z,35.07
2022-09-28T09:31:37.381Z,35.42
2022-09-28T09:34:03.741Z,35.33
2022-09-28T09:36:30.082Z,35.16
2022-09-28T09:38:56.444Z,35.28
2022-09-28T09:41:22.793Z,34.77
2022-09-28T09:43:49.133Z,35.09
2022-09-28T09:46:15.497Z,35.00
2022-09-28T09:48:41.823Z,35.05
2022-09-28T09:51:08.157Z,35.00
2022-09-28T09:53:37.705Z,34.66
2022-09-28T09:56:00.833Z,34.65
2022-09-28T09:58:27.181Z,34.51
2022-09-28T10:00:53.560Z,34.56
2022-09-28T10:03:19.862Z,34.49
2022-09-28T10:05:46.242Z,34.41
2022-09-28T10:08:12.608Z,34.69
2022-09-28T10:10:38.971Z,34.65
2022-09-28T10:13:05.319Z,34.68
2022-09-28T10:15:31.652Z,34.67
2022-09-28T10:17:59.020Z,34.76
2022-09-28T10:20:25.712Z,34.87
2022-09-28T10:22:50.728Z,34.66
2022-09-28T10:25:17.111Z,34.93
2022-09-28T10:27:43.492Z,34.62
2022-09-28T10:30:09.835Z,34.55
2022-09-28T10:32:36.192Z,34.43
2022-09-28T10:35:02.535Z,34.54
2022-09-28T10:37:28.956Z,34.63
2022-09-28T10:39:55.300Z,34.62
2022-09-28T10:42:21.726Z,34.50
2022-09-28T10:44:48.037Z,34.42
2022-09-28T10:47:14.381Z,34.38
2022-09-28T10:49:45.875Z,34.47
2022-09-28T10:52:07.070Z,34.31
2022-09-28T10:54:33.420Z,34.17
2022-09-28T10:56:59.782Z,34.18
2022-09-28T10:59:26.116Z,34.31
2022-09-28T11:01:52.505Z,33.84
2022-09-28T11:04:19.012Z,33.56
2022-09-28T11:06:45.367Z,33.46
2022-09-28T11:09:11.600Z,33.52
2022-09-28T11:11:37.941Z,33.32
2022-09-28T11:14:04.295Z,33.29
2022-09-28T11:16:30.703Z,33.23
2022-09-28T11:18:56.989Z,33.26
2022-09-28T11:21:23.331Z,33.33
2022-09-28T11:23:49.709Z,33.30
2022-09-28T11:26:18.605Z,33.21
2022-09-28T11:28:42.455Z,33.04
2022-09-28T11:31:08.895Z,33.08
2022-09-28T11:33:35.203Z,32.93
2022-09-28T11:36:01.550Z,32.85
2022-09-28T11:38:27.884Z,32.78
2022-09-28T11:40:54.385Z,32.67
2022-09-28T11:43:20.597Z,32.73
2022-09-28T11:45:46.971Z,32.67
2022-09-28T11:48:13.307Z,32.78
2022-09-28T11:50:39.667Z,32.62
2022-09-28T11:53:06.018Z,32.68
2022-09-28T11:55:32.372Z,32.54
2022-09-28T11:57:58.761Z,32.51
2022-09-28T12:00:25.120Z,32.58
2022-09-28T12:02:51.655Z,32.44
2022-09-28T12:05:20.847Z,32.36
2022-09-28T12:07:44.211Z,32.19
2022-09-28T12:10:10.558Z,32.26
2022-09-28T12:12:36.915Z,32.27
2022-09-28T12:15:03.286Z,32.22
2022-09-28T12:17:29.661Z,32.26
2022-09-28T12:19:55.985Z,32.14
2022-09-28T12:22:22.342Z,32.07
2022-09-28T12:24:48.719Z,32.13
2022-09-28T12:27:15.061Z,32.00
2022-09-28T12:29:41.410Z,31.97
2022-09-28T12:32:07.757Z,31.85
2022-09-28T12:34:34.105Z,31.79
2022-09-28T12:37:00.446Z,31.64
2022-09-28T12:39:40.953Z,31.69
2022-09-28T12:41:53.139Z,31.80
2022-09-28T12:44:19.497Z,31.65
2022-09-28T12:46:45.980Z,31.80
2022-09-28T12:51:38.590Z,31.64
2022-09-28T12:54:05.072Z,31.65
2022-09-28T12:56:31.499Z,31.59
2022-09-28T12:58:57.857Z,31.58
2022-09-28T13:01:24.250Z,31.49
2022-09-28T13:03:50.554Z,31.50
2022-09-28T13:06:16.894Z,31.41
2022-09-28T13:08:43.239Z,31.40
2022-09-28T13:11:09.586Z,31.30
2022-09-28T13:13:35.943Z,31.20
2022-09-28T13:16:02.332Z,31.20
2022-09-28T13:18:28.644Z,31.10
2022-09-28T13:20:56.417Z,31.21
2022-09-28T13:23:21.336Z,31.03
2022-09-28T13:25:47.674Z,31.05
2022-09-28T13:28:14.046Z,30.99
2022-09-28T13:30:42.220Z,31.05
2022-09-28T13:33:06.756Z,30.91
2022-09-28T13:35:33.095Z,30.51
2022-09-28T13:37:59.432Z,30.26
2022-09-28T13:40:25.802Z,30.18
2022-09-28T13:42:52.211Z,30.11
2022-09-28T13:45:18.554Z,30.34
2022-09-28T13:47:44.893Z,30.44
2022-09-28T13:50:11.377Z,30.23
2022-09-28T13:52:37.621Z,29.96
2022-09-28T13:55:03.956Z,29.76
2022-09-28T13:57:30.311Z,29.76
2022-09-28T13:59:56.655Z,29.92
2022-09-28T14:02:23.034Z,29.87
2022-09-28T14:04:49.348Z,29.93
2022-09-28T14:07:15.780Z,29.84
2022-09-28T14:09:42.077Z,29.69
2022-09-28T14:12:08.435Z,29.76
2022-09-28T14:14:34.776Z,29.72
2022-09-28T14:17:01.120Z,29.76
2022-09-28T14:19:27.459Z,29.78
2022-09-28T14:21:53.821Z,29.82
2022-09-28T14:24:20.143Z,29.73
2022-09-28T14:26:46.498Z,29.83
2022-09-28T14:29:12.871Z,29.71
2022-09-28T14:31:40.422Z,29.85
2022-09-28T14:34:05.562Z,29.79
2022-09-28T14:36:31.944Z,29.86
2022-09-28T14:38:58.281Z,29.92
2022-09-28T14:41:24.630Z,30.22
2022-09-28T14:43:50.966Z,30.27
2022-09-28T14:46:17.460Z,30.44
2022-09-28T14:48:43.711Z,30.43
2022-09-28T14:51:10.053Z,30.55
2022-09-28T14:53:36.407Z,30.56
2022-09-28T14:56:02.768Z,30.67
2022-09-28T14:58:29.099Z,30.57
2022-09-28T15:00:55.447Z,30.43
2022-09-28T15:03:21.794Z,30.30
2022-09-28T15:05:48.207Z,30.28
2022-09-28T15:08:14.550Z,30.01
2022-09-28T15:10:40.889Z,30.12
2022-09-28T15:13:07.225Z,30.06
2022-09-28T15:15:33.631Z,30.16
2022-09-28T15:17:59.943Z,30.13
2022-09-28T15:20:26.290Z,30.21
2022-09-28T15:22:52.640Z,30.12
2022-09-28T15:25:18.979Z,30.14
2022-09-28T15:27:45.310Z,30.15
2022-09-28T15:30:11.654Z,30.16
2022-09-28T15:32:37.988Z,30.06
2022-09-28T15:35:04.336Z,30.11
2022-09-28T15:37:30.672Z,30.06
2022-09-28T15:39:57.031Z,30.05
2022-09-28T15:42:24.379Z,30.10
2022-09-28T15:44:49.717Z,29.96
2022-09-28T15:47:16.057Z,30.00
2022-09-28T15:49:42.402Z,29.92
2022-09-28T15:52:08.737Z,29.99
2022-09-28T15:54:35.085Z,29.92
2022-09-28T15:57:01.464Z,29.87
2022-09-28T15:59:27.987Z,29.88
2022-09-28T16:01:54.374Z,29.84
2022-09-28T16:04:20.705Z,29.75
2022-09-28T16:06:47.037Z,29.80
2022-09-28T16:09:13.380Z,29.76
2022-09-28T16:11:39.718Z,29.77
2022-09-28T16:14:06.114Z,29.78
2022-09-28T16:16:32.416Z,29.72
2022-09-28T16:18:58.753Z,29.66
2022-09-28T16:21:25.139Z,29.72
2022-09-28T16:23:51.474Z,29.75
2022-09-28T16:26:17.819Z,29.80
2022-09-28T16:28:44.152Z,29.78
2022-09-28T16:31:10.563Z,29.70
2022-09-28T16:33:36.858Z,29.73
2022-09-28T16:36:03.227Z,29.78
2022-09-28T16:38:29.558Z,29.79
2022-09-28T16:40:55.956Z,29.76
2022-09-28T16:43:22.272Z,29.76
2022-09-28T16:45:48.628Z,29.63
2022-09-28T16:48:14.965Z,29.66
2022-09-28T16:50:41.311Z,29.70
2022-09-28T16:53:07.657Z,29.60
2022-09-28T16:55:40.412Z,29.61
2022-09-28T16:58:00.389Z,29.59
2022-09-28T17:00:26.740Z,29.61
2022-09-28T17:02:53.098Z,29.63
2022-09-28T17:05:19.413Z,29.52
2022-09-28T17:07:45.754Z,29.59
2022-09-28T17:10:12.108Z,29.41
2022-09-28T17:12:38.479Z,29.49
2022-09-28T17:15:04.817Z,29.43
2022-09-28T17:17:31.193Z,29.41
2022-09-28T17:19:57.549Z,29.48
2022-09-28T17:22:23.874Z,29.39
2022-09-28T17:24:50.218Z,29.33
2022-09-28T17:27:16.583Z,29.31
2022-09-28T17:29:42.924Z,29.31
2022-09-28T17:32:09.255Z,29.32
2022-09-28T17:34:35.619Z,29.29
2022-09-28T17:37:01.956Z,29.23
2022-09-28T17:39:28.304Z,29.17
2022-09-28T17:41:54.636Z,29.32
2022-09-28T17:44:21.153Z,29.17
2022-09-28T17:46:47.545Z,29.17
2022-09-28T17:49:13.687Z,29.13
2022-09-28T17:51:40.015Z,29.11
2022-09-28T17:54:06.362Z,29.13
2022-09-28T17:56:32.817Z,29.10
2022-09-28T17:58:59.061Z,29.14
2022-09-28T18:01:25.496Z,29.16
2022-09-28T18:03:51.748Z,29.18
2022-09-28T18:06:18.082Z,29.18
2022-09-28T18:08:44.463Z,29.26
2022-09-28T18:11:10.802Z,29.27
2022-09-28T18:13:37.211Z,29.34
2022-09-28T18:16:04.897Z,29.30
2022-09-28T18:18:29.889Z,29.33
2022-09-28T18:20:56.228Z,29.31
2022-09-28T18:23:22.573Z,29.34
2022-09-28T18:25:48.913Z,29.34
2022-09-28T18:28:15.254Z,29.39
2022-09-28T18:30:41.637Z,29.38
2022-09-28T18:33:07.933Z,29.47
2022-09-28T18:35:34.264Z,29.47
2022-09-28T18:38:00.656Z,29.50
2022-09-28T18:40:27.039Z,29.52
2022-09-28T18:42:53.344Z,29.56
2022-09-28T18:45:19.684Z,29.58
2022-09-28T18:47:46.027Z,29.61
2022-09-28T18:50:12.370Z,29.59
2022-09-28T18:52:38.712Z,29.62
2022-09-28T18:55:05.046Z,29.67
2022-09-28T18:57:31.393Z,29.64
2022-09-28T18:59:57.728Z,29.69
2022-09-28T19:02:24.148Z,29.71
2022-09-28T19:04:50.400Z,29.72
2022-09-28T19:07:16.836Z,29.74
2022-09-28T19:09:43.166Z,29.76
2022-09-28T19:12:09.509Z,29.69
2022-09-28T19:14:35.853Z,29.76
2022-09-28T19:17:02.228Z,29.78
2022-09-28T19:19:28.569Z,29.75
2022-09-28T19:21:54.945Z,29.79
2022-09-28T19:24:21.249Z,29.85
2022-09-28T19:26:47.587Z,29.81
2022-09-28T19:29:13.934Z,29.96
2022-09-28T19:31:40.272Z,29.88
2022-09-28T19:34:08.236Z,29.88
2022-09-28T19:36:32.949Z,29.85
2022-09-28T19:38:59.279Z,29.87
2022-09-28T19:41:25.674Z,29.91
2022-09-28T19:43:52.016Z,29.88
2022-09-28T19:46:18.413Z,29.88
2022-09-28T19:48:44.701Z,29.94
2022-09-28T19:51:11.048Z,29.94
2022-09-28T19:53:37.384Z,29.95
2022-09-28T19:56:03.728Z,29.97
2022-09-28T19:58:30.072Z,30.12
2022-09-28T20:00:56.421Z,30.10
2022-09-28T20:03:22.754Z,30.10
2022-09-28T20:05:49.101Z,30.14
2022-09-28T20:08:15.445Z,30.21
2022-09-28T20:10:41.783Z,30.17
2022-09-28T20:13:08.117Z,30.13
2022-09-28T20:15:34.493Z,30.31
2022-09-28T20:18:00.846Z,30.46
2022-09-28T20:20:27.187Z,30.50
2022-09-28T20:22:53.520Z,30.52
2022-09-28T20:25:19.856Z,30.54
2022-09-28T20:27:46.192Z,30.44
2022-09-28T20:30:12.530Z,30.53
2022-09-28T20:32:38.868Z,30.43
2022-09-28T20:35:05.205Z,30.50
2022-09-28T20:37:31.551Z,30.49
2022-09-28T20:39:57.888Z,30.56
2022-09-28T20:42:24.319Z,30.47
2022-09-28T20:44:50.694Z,30.51
2022-09-28T20:47:17.027Z,30.51
2022-09-28T20:49:43.364Z,30.53
2022-09-28T20:52:09.701Z,30.56
2022-09-28T20:54:36.047Z,30.52
2022-09-28T20:57:02.377Z,30.59
2022-09-28T20:59:29.685Z,30.51
2022-09-28T21:01:55.158Z,30.45
2022-09-28T21:04:21.526Z,30.37
2022-09-28T21:06:47.788Z,30.39
2022-09-28T21:09:14.132Z,30.47
2022-09-28T21:11:40.484Z,30.39
2022-09-28T21:14:06.822Z,30.41
2022-09-28T21:16:33.154Z,30.40
2022-09-28T21:18:59.506Z,30.37
2022-09-28T21:21:25.833Z,30.39
2022-09-28T21:23:52.169Z,30.44
2022-09-28T21:26:18.507Z,30.33
2022-09-28T21:28:44.856Z,30.33
2022-09-28T21:31:11.243Z,30.39
2022-09-28T21:33:37.541Z,30.40
2022-09-28T21:36:03.879Z,30.47
2022-09-28T21:38:30.218Z,30.56
2022-09-28T21:40:56.610Z,30.49
2022-09-28T21:43:22.895Z,30.50
2022-09-28T21:45:49.235Z,30.44
2022-09-28T21:48:15.583Z,30.48
2022-09-28T21:50:41.936Z,30.46
2022-09-28T21:53:08.277Z,30.46
2022-09-28T21:55:34.630Z,30.47
2022-09-28T21:58:00.974Z,30.57
2022-09-28T22:00:27.324Z,30.47
2022-09-28T22:02:53.703Z,30.63
2022-09-28T22:05:19.988Z,30.53
2022-09-28T22:07:46.334Z,30.49
2022-09-28T22:10:12.677Z,30.57
2022-09-28T22:12:39.015Z,30.55
2022-09-28T22:15:05.344Z,30.55
2022-09-28T22:17:31.727Z,30.58
2022-09-28T22:19:59.014Z,30.60
2022-09-28T22:22:28.395Z,30.69
2022-09-28T22:24:50.740Z,30.77
2022-09-28T22:27:17.082Z,30.76
2022-09-28T22:29:43.418Z,30.72
2022-09-28T22:32:09.766Z,30.73
2022-09-28T22:34:36.096Z,30.69
2022-09-28T22:37:02.451Z,30.69
2022-09-28T22:39:28.794Z,30.69
2022-09-28T22:41:55.136Z,30.73
2022-09-28T22:44:21.475Z,30.67
2022-09-28T22:46:47.888Z,30.72
2022-09-28T22:49:14.160Z,30.77
2022-09-28T22:51:40.495Z,30.81
2022-09-28T22:54:06.856Z,30.72
2022-09-28T22:56:33.200Z,30.66
2022-09-28T22:58:59.539Z,30.76
2022-09-28T23:01:25.970Z,30.73
2022-09-28T23:03:52.240Z,30.87
2022-09-28T23:06:18.583Z,30.86
2022-09-28T23:08:44.925Z,30.81
2022-09-28T23:11:11.265Z,30.90
2022-09-28T23:13:37.596Z,30.78
2022-09-28T23:16:03.980Z,30.82
2022-09-28T23:18:30.274Z,30.82
2022-09-28T23:20:56.615Z,30.81
2022-09-28T23:23:22.952Z,30.85
2022-09-28T23:25:49.295Z,30.85
2022-09-28T23:28:15.633Z,30.91
2022-09-28T23:30:41.979Z,30.89
2022-09-28T23:33:08.324Z,30.96
2022-09-28T23:35:34.663Z,30.95
2022-09-28T23:38:00.992Z,30.86
2022-09-28T23:40:27.401Z,30.94
2022-09-28T23:42:53.672Z,31.01
2022-09-28T23:45:20.037Z,30.90
2022-09-28T23:47:46.366Z,31.10
2022-09-28T23:50:12.706Z,31.06
2022-09-28T23:52:39.044Z,31.03
2022-09-28T23:55:05.381Z,30.99
2022-09-28T23:57:31.723Z,31.09
2022-09-28T23:59:58.064Z,31.03
